Time;durP1;ratioP1;P1;durP2;ratioP2;P2;SDS_P1;SDS_P2;PMS_P1;PMS_P2;Temp;Humidity;BMP_temperature;BMP_pressure;BME280_temperature;BME280_humidity;BME280_pressure;Samples;Min_cycle;Max_cycle;Signal;HPM_P1;HPM_P2
2021/05/26 00:01:37;;;;;;;;;;;11.00;90.50;;;;;;4318042;33;27930;-73
2021/05/26 00:04:04;;;;;;;;;;;10.90;90.50;;;;;;4319209;33;20014;-73
2021/05/26 00:06:31;;;;;;;;;;;10.90;90.60;;;;;;4318483;33;25166;-73
2021/05/26 00:08:58;;;;;;;;;;;10.90;90.60;;;;;;4318414;33;26210;-73
2021/05/26 00:11:25;;;;;;;;;;;10.80;90.70;;;;;;4318165;33;24809;-73
2021/05/26 00:13:52;;;;;;;;;;;10.90;91.00;;;;;;4318474;33;20024;-73
2021/05/26 00:16:20;;;;;;;;;;;10.80;90.70;;;;;;4305721;33;20050;-73
2021/05/26 00:18:47;;;;;;;;;;;10.80;90.80;;;;;;4318705;33;20024;-73
2021/05/26 00:21:14;;;;;;;;;;;10.80;90.80;;;;;;4318372;33;24408;-73
2021/05/26 00:23:41;;;;;;;;;;;10.80;90.90;;;;;;4318426;33;22048;-73
2021/05/26 00:26:08;;;;;;;;;;;10.80;90.90;;;;;;4318886;33;20002;-73
2021/05/26 00:28:35;;;;;;;;;;;10.80;91.00;;;;;;4318204;33;20013;-73
2021/05/26 00:31:05;;;;;;;;;;;10.80;91.00;;;;;;4305361;33;20050;-73
2021/05/26 00:33:32;;;;;;;;;;;10.80;91.10;;;;;;4318332;33;20017;-74
2021/05/26 00:35:59;;;;;;;;;;;10.70;91.00;;;;;;4305086;33;20173;-73
2021/05/26 00:38:26;;;;;;;;;;;10.70;91.00;;;;;;4318080;33;27469;-74
2021/05/26 00:40:55;;;;;;;;;;;10.70;91.40;;;;;;4305191;33;21344;-74
2021/05/26 00:43:22;;;;;;;;;;;10.70;91.10;;;;;;4305729;33;20002;-74
2021/05/26 00:45:49;;;;;;;;;;;10.70;91.20;;;;;;4318066;33;20407;-74
2021/05/26 00:48:16;;;;;;;;;;;10.60;91.20;;;;;;4318221;33;23869;-73
2021/05/26 00:50:43;;;;;;;;;;;10.70;91.30;;;;;;4305588;33;20092;-73
2021/05/26 00:53:12;;;;;;;;;;;10.70;91.20;;;;;;4317631;33;21449;-73
2021/05/26 00:55:41;;;;;;;;;;;10.70;91.30;;;;;;4317604;33;24445;-73
2021/05/26 00:58:08;;;;;;;;;;;10.60;91.30;;;;;;4305332;33;20026;-73
2021/05/26 01:00:36;;;;;;;;;;;10.60;91.30;;;;;;4317699;33;22386;-73
2021/05/26 01:03:04;;;;;;;;;;;10.70;91.30;;;;;;4317342;33;22170;-73
2021/05/26 01:05:31;;;;;;;;;;;10.60;91.20;;;;;;4317050;33;25944;-73
2021/05/26 01:07:59;;;;;;;;;;;10.70;91.30;;;;;;4317278;33;25688;-73
2021/05/26 01:10:30;;;;;;;;;;;10.70;91.30;;;;;;4304476;33;20008;-73
2021/05/26 01:12:57;;;;;;;;;;;10.70;91.20;;;;;;4304685;33;19998;-73
2021/05/26 01:15:24;;;;;;;;;;;10.70;91.20;;;;;;4317494;33;26566;-73
2021/05/26 01:17:52;;;;;;;;;;;10.70;91.30;;;;;;4317679;33;24871;-73
2021/05/26 01:20:37;;;;;;;;;;;10.70;91.20;;;;;;4317619;33;21270;-73
2021/05/26 01:23:04;;;;;;;;;;;10.70;91.20;;;;;;4318354;33;20058;-73
2021/05/26 01:25:31;;;;;;;;;;;10.70;91.30;;;;;;4304271;33;20017;-73
2021/05/26 01:27:58;;;;;;;;;;;10.70;91.30;;;;;;4317400;33;24227;-73
2021/05/26 01:30:25;;;;;;;;;;;10.60;91.30;;;;;;4317441;33;26045;-73
2021/05/26 01:32:52;;;;;;;;;;;10.60;91.30;;;;;;4317681;33;20009;-73
2021/05/26 01:35:19;;;;;;;;;;;10.60;91.40;;;;;;4317013;33;27219;-73
2021/05/26 01:37:47;;;;;;;;;;;10.60;91.80;;;;;;4317295;33;20002;-73
2021/05/26 01:40:16;;;;;;;;;;;10.60;91.50;;;;;;4304253;33;24181;-73
2021/05/26 01:42:47;;;;;;;;;;;10.60;91.60;;;;;;4303964;33;26880;-73
2021/05/26 01:45:15;;;;;;;;;;;10.50;91.60;;;;;;4317220;33;20009;-73
2021/05/26 01:47:44;;;;;;;;;;;10.50;91.60;;;;;;4317533;33;20917;-73
2021/05/26 01:50:23;;;;;;;;;;;10.50;91.70;;;;;;4317311;33;20010;-73
2021/05/26 01:52:52;;;;;;;;;;;10.50;91.70;;;;;;4317159;33;25509;-74
2021/05/26 01:55:19;;;;;;;;;;;10.50;91.80;;;;;;4317712;33;20021;-73
2021/05/26 01:57:47;;;;;;;;;;;10.50;91.70;;;;;;4317294;33;20025;-74
2021/05/26 02:00:15;;;;;;;;;;;10.50;91.70;;;;;;4317120;33;21239;-74
2021/05/26 02:02:42;;;;;;;;;;;10.60;91.60;;;;;;4303393;33;23314;-74
2021/05/26 02:05:09;;;;;;;;;;;10.50;91.70;;;;;;4316973;33;20046;-74
2021/05/26 02:07:37;;;;;;;;;;;10.50;91.70;;;;;;4317279;33;20336;-73
2021/05/26 02:10:05;;;;;;;;;;;10.50;91.70;;;;;;4316966;33;25302;-73
2021/05/26 02:12:33;;;;;;;;;;;10.60;91.70;;;;;;4317264;33;20049;-74
2021/05/26 02:15:02;;;;;;;;;;;10.60;91.70;;;;;;4316604;33;20006;-73
2021/05/26 02:17:29;;;;;;;;;;;10.60;91.70;;;;;;4303439;33;22630;-73
2021/05/26 02:19:56;;;;;;;;;;;10.60;91.70;;;;;;4303303;33;20005;-73
2021/05/26 02:22:23;;;;;;;;;;;10.60;91.70;;;;;;4317284;33;20013;-73
2021/05/26 02:24:50;;;;;;;;;;;10.60;91.70;;;;;;4316777;33;23548;-73
2021/05/26 02:27:17;;;;;;;;;;;10.60;91.80;;;;;;4316866;33;22381;-73
2021/05/26 02:29:44;;;;;;;;;;;10.50;91.70;;;;;;4303561;33;20018;-73
2021/05/26 02:32:12;;;;;;;;;;;10.50;91.70;;;;;;4316827;33;24879;-73
2021/05/26 02:34:39;;;;;;;;;;;10.50;91.70;;;;;;4303374;33;26667;-73
2021/05/26 02:37:06;;;;;;;;;;;10.50;91.70;;;;;;4316734;33;25982;-73
2021/05/26 02:39:33;;;;;;;;;;;10.50;91.70;;;;;;4303148;33;30462;-73
2021/05/26 02:42:01;;;;;;;;;;;10.60;91.80;;;;;;4316534;33;20009;-73
2021/05/26 02:44:28;;;;;;;;;;;10.60;91.70;;;;;;4316297;33;27159;-73
2021/05/26 02:46:55;;;;;;;;;;;10.60;91.60;;;;;;4316629;33;24540;-73
2021/05/26 02:49:22;;;;;;;;;;;10.60;91.70;;;;;;4316510;33;21552;-73
2021/05/26 02:51:49;;;;;;;;;;;10.60;91.60;;;;;;4291529;33;20316;-73
2021/05/26 02:54:16;;;;;;;;;;;10.60;91.60;;;;;;4316973;33;20002;-74
2021/05/26 02:56:43;;;;;;;;;;;10.60;91.70;;;;;;4316970;33;20014;-73
2021/05/26 02:59:10;;;;;;;;;;;10.60;91.70;;;;;;4316371;33;21826;-73
2021/05/26 03:01:38;;;;;;;;;;;10.60;91.70;;;;;;4316279;33;20194;-73
2021/05/26 03:04:05;;;;;;;;;;;10.60;91.70;;;;;;4316523;33;28249;-73
2021/05/26 03:06:32;;;;;;;;;;;10.60;91.70;;;;;;4316908;33;20048;-73
2021/05/26 03:08:59;;;;;;;;;;;10.60;91.70;;;;;;4316765;33;20297;-73
2021/05/26 03:11:26;;;;;;;;;;;10.60;91.70;;;;;;4303400;33;25365;-73
2021/05/26 03:13:53;;;;;;;;;;;10.50;91.70;;;;;;4316655;33;20006;-73
2021/05/26 03:16:20;;;;;;;;;;;10.60;91.80;;;;;;4303365;33;20072;-73
2021/05/26 03:18:49;;;;;;;;;;;10.50;91.70;;;;;;4316501;33;23661;-73
2021/05/26 03:21:16;;;;;;;;;;;10.60;91.70;;;;;;4316214;33;26850;-73
2021/05/26 03:23:43;;;;;;;;;;;10.60;91.70;;;;;;4316505;33;20472;-73
2021/05/26 03:26:11;;;;;;;;;;;10.50;91.70;;;;;;4316468;33;20065;-73
2021/05/26 03:28:38;;;;;;;;;;;10.50;91.80;;;;;;4318813;33;20009;-73
2021/05/26 03:31:05;;;;;;;;;;;10.50;91.80;;;;;;4319239;33;20010;-73
2021/05/26 03:33:32;;;;;;;;;;;10.50;91.90;;;;;;4305920;33;20038;-73
2021/05/26 03:36:02;;;;;;;;;;;10.40;91.90;;;;;;4319276;33;20351;-73
2021/05/26 03:38:29;;;;;;;;;;;10.50;91.90;;;;;;4319480;33;20036;-73
2021/05/26 03:40:56;;;;;;;;;;;10.40;92.00;;;;;;4319273;33;20007;-72
2021/05/26 03:43:23;;;;;;;;;;;10.40;92.00;;;;;;4319318;33;20016;-73
2021/05/26 03:45:50;;;;;;;;;;;10.30;92.10;;;;;;4305612;33;28804;-73
2021/05/26 03:48:17;;;;;;;;;;;10.30;92.20;;;;;;4305969;33;20017;-73
2021/05/26 03:50:44;;;;;;;;;;;10.30;92.30;;;;;;4305058;33;29013;-73
2021/05/26 03:53:11;;;;;;;;;;;10.20;92.60;;;;;;4318831;33;24440;-73
2021/05/26 03:55:39;;;;;;;;;;;10.20;92.20;;;;;;4305202;33;26530;-73
2021/05/26 03:58:06;;;;;;;;;;;10.20;92.60;;;;;;4318989;33;20001;-73
2021/05/26 04:00:33;;;;;;;;;;;10.20;92.30;;;;;;4318553;33;27080;-73
2021/05/26 04:03:00;;;;;;;;;;;10.20;92.30;;;;;;4318368;33;20021;-73
2021/05/26 04:05:27;;;;;;;;;;;10.20;92.30;;;;;;4318622;33;23967;-73
2021/05/26 04:07:54;;;;;;;;;;;10.20;92.40;;;;;;4318199;33;28310;-73
2021/05/26 04:10:21;;;;;;;;;;;10.20;92.70;;;;;;4318745;33;20020;-73
2021/05/26 04:12:48;;;;;;;;;;;10.20;92.30;;;;;;4318907;33;20017;-73
2021/05/26 04:15:15;;;;;;;;;;;10.20;92.40;;;;;;4318428;33;29176;-73
2021/05/26 04:17:42;;;;;;;;;;;10.10;92.40;;;;;;4318393;33;24343;-73
2021/05/26 04:20:09;;;;;;;;;;;10.10;92.50;;;;;;4304935;33;24715;-73
2021/05/26 04:22:37;;;;;;;;;;;10.10;92.50;;;;;;4318587;33;24182;-73
2021/05/26 04:25:06;;;;;;;;;;;10.10;92.50;;;;;;4305014;33;22763;-73
2021/05/26 04:27:33;;;;;;;;;;;10.00;92.60;;;;;;4305293;33;20216;-73
2021/05/26 04:30:01;;;;;;;;;;;10.00;92.60;;;;;;4318952;33;20014;-73
2021/05/26 04:32:28;;;;;;;;;;;10.00;92.70;;;;;;4318973;33;20065;-73
2021/05/26 04:34:55;;;;;;;;;;;10.00;92.80;;;;;;4318335;33;28913;-73
2021/05/26 04:37:22;;;;;;;;;;;10.00;92.80;;;;;;4305222;33;22306;-73
2021/05/26 04:39:49;;;;;;;;;;;10.00;92.80;;;;;;4317793;33;20053;-73
2021/05/26 04:42:16;;;;;;;;;;;10.00;92.90;;;;;;4305164;33;23530;-73
2021/05/26 04:44:43;;;;;;;;;;;9.90;92.90;;;;;;4292733;33;31026;-73
2021/05/26 04:47:10;;;;;;;;;;;9.90;92.90;;;;;;4318369;33;20010;-73
2021/05/26 04:49:37;;;;;;;;;;;9.90;92.70;;;;;;4318230;33;26935;-73
2021/05/26 04:52:04;;;;;;;;;;;10.00;92.80;;;;;;4317761;33;21109;-73
2021/05/26 04:54:32;;;;;;;;;;;10.00;92.80;;;;;;4318069;33;21608;-73
2021/05/26 04:56:59;;;;;;;;;;;10.00;93.10;;;;;;4317699;33;27051;-73
2021/05/26 04:59:26;;;;;;;;;;;10.00;92.80;;;;;;4304693;33;27904;-73
2021/05/26 05:01:53;;;;;;;;;;;10.00;92.70;;;;;;4318021;33;20417;-73
2021/05/26 05:04:20;;;;;;;;;;;10.00;92.80;;;;;;4318080;33;20025;-73
2021/05/26 05:06:47;;;;;;;;;;;10.00;92.70;;;;;;4292809;33;20068;-73
2021/05/26 05:09:15;;;;;;;;;;;10.00;92.70;;;;;;4305428;33;20419;-73
2021/05/26 05:11:42;;;;;;;;;;;10.00;92.70;;;;;;4304460;33;26940;-73
2021/05/26 05:14:09;;;;;;;;;;;10.00;92.70;;;;;;4317624;33;25758;-74
2021/05/26 05:16:36;;;;;;;;;;;10.10;92.70;;;;;;4318021;33;20401;-73
2021/05/26 05:19:04;;;;;;;;;;;10.10;92.70;;;;;;4304810;33;20017;-74
2021/05/26 05:21:31;;;;;;;;;;;10.10;92.70;;;;;;4304202;33;20392;-73
2021/05/26 05:23:58;;;;;;;;;;;10.10;92.70;;;;;;4317436;33;25049;-73
2021/05/26 05:26:25;;;;;;;;;;;10.10;92.80;;;;;;4317822;33;20014;-73
2021/05/26 05:28:52;;;;;;;;;;;10.10;92.80;;;;;;4317759;33;20016;-73
2021/05/26 05:31:20;;;;;;;;;;;10.10;92.70;;;;;;4303952;33;21541;-73
2021/05/26 05:33:47;;;;;;;;;;;10.10;92.70;;;;;;4317545;33;20018;-73
2021/05/26 05:36:14;;;;;;;;;;;10.10;92.70;;;;;;4304108;33;24229;-73
2021/05/26 05:38:41;;;;;;;;;;;10.10;92.80;;;;;;4317507;33;21687;-73
2021/05/26 05:41:08;;;;;;;;;;;10.10;92.90;;;;;;4317528;33;21078;-73
2021/05/26 05:43:36;;;;;;;;;;;10.00;92.90;;;;;;4303919;33;26256;-73
2021/05/26 05:46:04;;;;;;;;;;;10.10;92.90;;;;;;4303823;33;23741;-73
2021/05/26 05:48:30;;;;;;;;;;;10.10;92.90;;;;;;4316835;33;27812;-72
2021/05/26 05:50:58;;;;;;;;;;;10.10;92.90;;;;;;4317580;33;20006;-73
2021/05/26 05:53:25;;;;;;;;;;;10.10;92.80;;;;;;4317158;33;20410;-73
2021/05/26 05:55:52;;;;;;;;;;;10.10;92.80;;;;;;4317147;33;24149;-72
2021/05/26 05:58:25;;;;;;;;;;;10.10;92.80;;;;;;4303693;33;20415;-73
2021/05/26 06:00:53;;;;;;;;;;;10.10;92.80;;;;;;4317623;33;20009;-72
2021/05/26 06:03:20;;;;;;;;;;;10.10;92.80;;;;;;4316823;33;20022;-73
2021/05/26 06:05:47;;;;;;;;;;;10.10;92.80;;;;;;4317500;33;20014;-72
2021/05/26 06:08:14;;;;;;;;;;;10.10;92.80;;;;;;4304349;33;20043;-73
2021/05/26 06:10:44;;;;;;;;;;;10.20;92.80;;;;;;4304733;33;20019;-72
2021/05/26 06:13:11;;;;;;;;;;;10.20;92.80;;;;;;4303526;33;23539;-73
2021/05/26 06:15:38;;;;;;;;;;;10.20;92.80;;;;;;4316692;33;25191;-72
2021/05/26 06:18:05;;;;;;;;;;;10.20;92.80;;;;;;4316815;33;29529;-73
2021/05/26 06:20:32;;;;;;;;;;;10.20;92.80;;;;;;4316688;33;31018;-72
2021/05/26 06:22:59;;;;;;;;;;;10.20;92.70;;;;;;4316858;33;20599;-72
2021/05/26 06:25:26;;;;;;;;;;;10.20;92.80;;;;;;4303482;33;26035;-73
2021/05/26 06:27:53;;;;;;;;;;;10.20;92.80;;;;;;4316894;33;20057;-73
2021/05/26 06:30:21;;;;;;;;;;;10.20;92.90;;;;;;4317047;33;20024;-73
2021/05/26 06:32:48;;;;;;;;;;;10.20;92.90;;;;;;4316925;33;20866;-72
2021/05/26 06:35:15;;;;;;;;;;;10.20;92.90;;;;;;4303589;33;25964;-73
2021/05/26 06:37:42;;;;;;;;;;;10.20;92.90;;;;;;4317105;33;20014;-72
2021/05/26 06:40:10;;;;;;;;;;;10.20;92.90;;;;;;4303694;33;20551;-72
2021/05/26 06:42:42;;;;;;;;;;;10.20;92.90;;;;;;4315647;33;20023;-72
2021/05/26 06:45:10;;;;;;;;;;;10.20;92.90;;;;;;4316247;33;21820;-73
2021/05/26 06:47:37;;;;;;;;;;;10.20;92.90;;;;;;4303561;33;20022;-73
2021/05/26 06:50:04;;;;;;;;;;;10.30;92.90;;;;;;4303751;33;20001;-72
2021/05/26 06:52:34;;;;;;;;;;;10.30;92.80;;;;;;4316777;33;20009;-73
2021/05/26 06:55:06;;;;;;;;;;;10.30;92.80;;;;;;4304015;33;20006;-73
2021/05/26 06:57:33;;;;;;;;;;;10.40;92.80;;;;;;4303241;33;22905;-73
2021/05/26 07:00:06;;;;;;;;;;;10.30;92.80;;;;;;4316611;33;20006;-73
2021/05/26 07:02:33;;;;;;;;;;;10.40;92.80;;;;;;4316565;33;21259;-73
2021/05/26 07:05:02;;;;;;;;;;;10.40;92.90;;;;;;4319042;33;20001;-73
2021/05/26 07:07:29;;;;;;;;;;;10.30;92.90;;;;;;4318246;33;26682;-73
2021/05/26 07:09:56;;;;;;;;;;;10.40;92.90;;;;;;4305199;33;21967;-73
2021/05/26 07:12:23;;;;;;;;;;;10.40;93.30;;;;;;4305799;33;20075;-73
2021/05/26 07:14:50;;;;;;;;;;;10.40;93.00;;;;;;4318953;33;20422;-73
2021/05/26 07:17:18;;;;;;;;;;;10.40;92.90;;;;;;4319094;33;20414;-73
2021/05/26 07:19:45;;;;;;;;;;;10.50;93.00;;;;;;4318267;33;23635;-73
2021/05/26 07:22:12;;;;;;;;;;;10.40;92.80;;;;;;4318297;33;20018;-73
2021/05/26 07:24:39;;;;;;;;;;;10.50;92.80;;;;;;4318122;33;20001;-73
2021/05/26 07:27:07;;;;;;;;;;;10.40;92.80;;;;;;4318144;33;22019;-73
2021/05/26 07:29:35;;;;;;;;;;;10.40;92.90;;;;;;4305118;33;20783;-72
2021/05/26 07:32:02;;;;;;;;;;;10.40;92.90;;;;;;4318285;33;20073;-73
2021/05/26 07:34:29;;;;;;;;;;;10.50;92.90;;;;;;4317730;33;26432;-73
2021/05/26 07:36:58;;;;;;;;;;;10.50;92.90;;;;;;4318342;33;20005;-73
2021/05/26 07:39:28;;;;;;;;;;;10.50;92.90;;;;;;4304508;33;24817;-73
2021/05/26 07:41:55;;;;;;;;;;;10.50;93.00;;;;;;4318088;33;28080;-72
2021/05/26 07:44:22;;;;;;;;;;;10.60;93.00;;;;;;4318042;33;20006;-73
2021/05/26 07:46:49;;;;;;;;;;;10.50;92.90;;;;;;4305236;33;20018;-73
2021/05/26 07:49:16;;;;;;;;;;;10.60;93.00;;;;;;4318026;33;30147;-73
2021/05/26 07:51:49;;;;;;;;;;;10.60;93.00;;;;;;4305250;33;20403;-73
2021/05/26 07:54:16;;;;;;;;;;;10.60;92.90;;;;;;4318098;33;20117;-73
2021/05/26 07:56:43;;;;;;;;;;;10.60;93.00;;;;;;4317867;33;20637;-73
2021/05/26 07:59:10;;;;;;;;;;;10.60;92.90;;;;;;4317881;33;27624;-73
2021/05/26 08:01:37;;;;;;;;;;;10.60;93.00;;;;;;4304560;33;23770;-73
2021/05/26 08:04:05;;;;;;;;;;;10.60;93.00;;;;;;4318989;33;20064;-73
2021/05/26 08:06:32;;;;;;;;;;;10.60;93.00;;;;;;4318675;33;20364;-73
2021/05/26 08:08:59;;;;;;;;;;;10.60;93.00;;;;;;4318920;33;20010;-73
2021/05/26 08:11:26;;;;;;;;;;;10.60;93.00;;;;;;4318453;33;20069;-73
2021/05/26 08:13:53;;;;;;;;;;;10.60;93.10;;;;;;4305065;33;20208;-73
2021/05/26 08:16:20;;;;;;;;;;;10.50;93.10;;;;;;4305579;33;20014;-73
2021/05/26 08:18:47;;;;;;;;;;;10.50;93.10;;;;;;4318792;33;20020;-73
2021/05/26 08:21:15;;;;;;;;;;;10.60;93.20;;;;;;4318262;33;20474;-73
2021/05/26 08:23:43;;;;;;;;;;;10.60;93.20;;;;;;4318819;33;20040;-73
2021/05/26 08:26:23;;;;;;;;;;;10.60;93.20;;;;;;4318367;33;21361;-73
2021/05/26 08:28:52;;;;;;;;;;;10.70;93.20;;;;;;4318615;33;21422;-73
2021/05/26 08:31:20;;;;;;;;;;;10.60;93.10;;;;;;4318367;33;23363;-73
2021/05/26 08:33:47;;;;;;;;;;;10.70;93.10;;;;;;4304978;33;24378;-73
2021/05/26 08:36:14;;;;;;;;;;;10.70;93.10;;;;;;4318675;33;20482;-72
2021/05/26 08:38:43;;;;;;;;;;;10.70;93.00;;;;;;4318792;33;20006;-73
2021/05/26 08:41:11;;;;;;;;;;;10.70;93.10;;;;;;4305096;33;22584;-73
2021/05/26 08:43:39;;;;;;;;;;;10.70;93.10;;;;;;4318076;33;25043;-73
2021/05/26 08:46:06;;;;;;;;;;;10.70;93.20;;;;;;4318045;33;21402;-73
2021/05/26 08:48:34;;;;;;;;;;;10.70;93.20;;;;;;4304607;33;25588;-72
2021/05/26 08:51:03;;;;;;;;;;;10.70;93.20;;;;;;4318101;33;26861;-72
2021/05/26 08:53:30;;;;;;;;;;;10.70;93.20;;;;;;4317395;33;29756;-73
2021/05/26 08:55:57;;;;;;;;;;;10.70;93.20;;;;;;4318151;33;20010;-73
2021/05/26 08:58:24;;;;;;;;;;;10.70;93.10;;;;;;4318182;33;20010;-73
2021/05/26 09:00:51;;;;;;;;;;;10.70;93.20;;;;;;4318307;33;19998;-73
2021/05/26 09:03:18;;;;;;;;;;;10.70;93.20;;;;;;4304677;33;20073;-72
2021/05/26 09:05:54;;;;;;;;;;;10.70;93.20;;;;;;4304710;33;30060;-73
2021/05/26 09:08:22;;;;;;;;;;;10.80;93.30;;;;;;4317449;33;20108;-73
2021/05/26 09:10:59;;;;;;;;;;;10.80;93.30;;;;;;4304823;33;19997;-73
2021/05/26 09:13:26;;;;;;;;;;;10.80;93.30;;;;;;4292495;33;25325;-73
2021/05/26 09:15:53;;;;;;;;;;;10.80;93.30;;;;;;4292677;33;20931;-73
2021/05/26 09:18:20;;;;;;;;;;;10.80;93.20;;;;;;4304384;33;20335;-73
2021/05/26 09:20:47;;;;;;;;;;;10.80;93.30;;;;;;4317289;33;25513;-73
2021/05/26 09:23:19;;;;;;;;;;;10.80;93.30;;;;;;4317465;33;27232;-73
2021/05/26 09:25:48;;;;;;;;;;;10.80;93.30;;;;;;4304282;33;20014;-73
2021/05/26 09:28:18;;;;;;;;;;;10.80;93.40;;;;;;4317329;33;21584;-73
2021/05/26 09:30:48;;;;;;;;;;;10.80;93.40;;;;;;4304633;33;20061;-73
2021/05/26 09:33:25;;;;;;;;;;;10.80;93.40;;;;;;4317185;33;29279;-73
2021/05/26 09:36:07;;;;;;;;;;;10.80;93.50;;;;;;4316878;33;30961;-73
2021/05/26 09:38:37;;;;;;;;;;;10.80;93.50;;;;;;4317367;33;28325;-73
2021/05/26 09:41:15;;;;;;;;;;;10.80;93.50;;;;;;4317320;33;29362;-73
2021/05/26 09:43:50;;;;;;;;;;;10.80;93.40;;;;;;4317443;33;22371;-74
2021/05/26 09:46:34;;;;;;;;;;;10.80;93.40;;;;;;4317184;33;25221;-74
2021/05/26 09:49:01;;;;;;;;;;;10.90;93.50;;;;;;4304501;33;21378;-73
2021/05/26 09:51:29;;;;;;;;;;;10.90;93.60;;;;;;4317172;33;25482;-73
2021/05/26 09:54:15;;;;;;;;;;;10.90;93.60;;;;;;4316901;33;29231;-73
2021/05/26 09:56:44;;;;;;;;;;;10.90;93.60;;;;;;4303899;33;24991;-73
2021/05/26 09:59:11;;;;;;;;;;;10.90;93.60;;;;;;4317492;33;21346;-73
2021/05/26 10:01:39;;;;;;;;;;;10.90;93.70;;;;;;4317146;33;20041;-73
2021/05/26 10:04:07;;;;;;;;;;;10.90;93.70;;;;;;4304101;33;23999;-73
2021/05/26 10:06:35;;;;;;;;;;;10.90;93.70;;;;;;4316750;33;28695;-73
2021/05/26 10:09:03;;;;;;;;;;;11.00;93.70;;;;;;4316998;33;25164;-73
2021/05/26 10:11:33;;;;;;;;;;;11.00;93.70;;;;;;4317021;33;20029;-73
2021/05/26 10:14:06;;;;;;;;;;;11.00;93.70;;;;;;4317229;33;24713;-73
2021/05/26 10:16:37;;;;;;;;;;;11.00;93.70;;;;;;4317033;33;26723;-73
2021/05/26 10:19:05;;;;;;;;;;;11.00;93.70;;;;;;4303679;33;24427;-73
2021/05/26 10:21:32;;;;;;;;;;;11.10;93.70;;;;;;4316725;33;27426;-73
2021/05/26 10:24:05;;;;;;;;;;;11.10;94.00;;;;;;4303847;33;20007;-73
2021/05/26 10:26:47;;;;;;;;;;;11.10;93.60;;;;;;4317053;33;20042;-73
2021/05/26 10:29:30;;;;;;;;;;;11.10;93.60;;;;;;4303870;33;20006;-73
2021/05/26 10:32:17;;;;;;;;;;;11.10;93.50;;;;;;4316497;33;29428;-73
2021/05/26 10:34:46;;;;;;;;;;;11.10;93.50;;;;;;4304065;33;28145;-73
2021/05/26 10:37:23;;;;;;;;;;;11.10;93.60;;;;;;4317036;33;20011;-73
2021/05/26 10:39:50;;;;;;;;;;;11.10;93.60;;;;;;4316968;33;20013;-73
2021/05/26 10:42:31;;;;;;;;;;;11.20;93.60;;;;;;4303615;33;25299;-73
2021/05/26 10:44:59;;;;;;;;;;;11.20;93.60;;;;;;4316608;33;27132;-73
2021/05/26 10:47:38;;;;;;;;;;;11.20;93.50;;;;;;4316589;33;20113;-73
2021/05/26 10:50:06;;;;;;;;;;;11.20;93.50;;;;;;4316650;33;30210;-73
2021/05/26 10:52:51;;;;;;;;;;;11.20;93.40;;;;;;4316734;33;20005;-73
2021/05/26 10:55:38;;;;;;;;;;;11.20;93.40;;;;;;4317345;33;20030;-72
2021/05/26 10:58:11;;;;;;;;;;;11.30;93.50;;;;;;4316861;33;20942;-73
2021/05/26 11:00:42;;;;;;;;;;;11.30;93.40;;;;;;4316692;33;24264;-73
2021/05/26 11:03:25;;;;;;;;;;;11.30;93.50;;;;;;4302903;33;22229;-72
2021/05/26 11:05:52;;;;;;;;;;;11.40;93.40;;;;;;4316360;33;20360;-72
2021/05/26 11:16:45;;;;;;;;;;;11.40;93.60;;;;;;4316800;33;20005;-73
2021/05/26 11:19:14;;;;;;;;;;;11.50;93.20;;;;;;4316314;33;28450;-73
2021/05/26 11:21:42;;;;;;;;;;;11.40;93.20;;;;;;4316612;33;20483;-72
2021/05/26 11:24:09;;;;;;;;;;;11.40;93.10;;;;;;4303113;33;29485;-73
2021/05/26 11:26:37;;;;;;;;;;;11.50;93.10;;;;;;4316724;33;20020;-73
2021/05/26 11:29:04;;;;;;;;;;;11.50;93.10;;;;;;4316423;33;22168;-73
2021/05/26 11:31:31;;;;;;;;;;;11.50;93.10;;;;;;4316244;33;20439;-73
2021/05/26 11:33:59;;;;;;;;;;;11.50;93.00;;;;;;4303031;33;24442;-73
2021/05/26 11:36:39;;;;;;;;;;;11.50;93.10;;;;;;4316355;33;25195;-73
2021/05/26 11:39:25;;;;;;;;;;;11.60;93.10;;;;;;4291204;33;21388;-73
2021/05/26 11:42:07;;;;;;;;;;;11.60;93.10;;;;;;4302788;33;28604;-73
2021/05/26 11:44:38;;;;;;;;;;;11.60;93.10;;;;;;4316424;33;20016;-73
2021/05/26 11:47:07;;;;;;;;;;;11.70;93.00;;;;;;4303218;33;25472;-73
2021/05/26 11:49:36;;;;;;;;;;;11.70;93.00;;;;;;4318251;33;26117;-73
2021/05/26 11:52:05;;;;;;;;;;;11.80;92.90;;;;;;4319722;33;20010;-72
2021/05/26 11:54:32;;;;;;;;;;;11.80;92.90;;;;;;4318392;33;28427;-73
2021/05/26 11:57:04;;;;;;;;;;;11.80;92.90;;;;;;4305853;33;20383;-72
2021/05/26 11:59:31;;;;;;;;;;;11.80;92.90;;;;;;4305393;33;26837;-73
2021/05/26 12:01:58;;;;;;;;;;;11.80;92.80;;;;;;4318322;33;20720;-73
2021/05/26 12:04:25;;;;;;;;;;;11.80;92.70;;;;;;4319375;33;20022;-72
2021/05/26 12:06:54;;;;;;;;;;;11.80;92.70;;;;;;4318269;33;29706;-72
2021/05/26 12:09:28;;;;;;;;;;;11.80;92.80;;;;;;4318492;33;29505;-72
2021/05/26 12:11:55;;;;;;;;;;;11.90;92.80;;;;;;4318823;33;20018;-73
2021/05/26 12:14:28;;;;;;;;;;;11.90;92.80;;;;;;4305698;33;20433;-73
2021/05/26 12:16:55;;;;;;;;;;;11.90;92.80;;;;;;4319014;33;20006;-73
2021/05/26 12:19:29;;;;;;;;;;;11.90;92.70;;;;;;4318847;33;20014;-73
2021/05/26 12:22:06;;;;;;;;;;;11.90;92.70;;;;;;4318519;33;22153;-73
2021/05/26 12:24:49;;;;;;;;;;;12.00;92.70;;;;;;4305016;33;25227;-72
2021/05/26 12:27:48;;;;;;;;;;;11.90;92.70;;;;;;4305051;33;20017;-73
2021/05/26 12:30:22;;;;;;;;;;;11.90;92.70;;;;;;4278449;33;20420;-72
2021/05/26 12:33:15;;;;;;;;;;;12.00;92.80;;;;;;4318750;33;20018;-72
2021/05/26 12:35:43;;;;;;;;;;;12.10;92.80;;;;;;4318336;33;27149;-72
2021/05/26 12:38:17;;;;;;;;;;;12.10;92.50;;;;;;4318510;33;20013;-72
2021/05/26 12:40:45;;;;;;;;;;;12.20;92.50;;;;;;4318257;33;26103;-72
2021/05/26 12:43:23;;;;;;;;;;;12.30;92.50;;;;;;4317951;33;27833;-72
2021/05/26 12:45:50;;;;;;;;;;;12.30;92.40;;;;;;4318502;33;20017;-72
2021/05/26 12:48:17;;;;;;;;;;;12.40;92.30;;;;;;4318755;33;20092;-72
2021/05/26 12:50:45;;;;;;;;;;;12.40;92.30;;;;;;4317988;33;20002;-73
2021/05/26 12:53:13;;;;;;;;;;;12.40;92.10;;;;;;4317905;33;26424;-78
2021/05/26 12:55:41;;;;;;;;;;;12.30;92.00;;;;;;4318089;33;20006;-72
2021/05/26 12:58:10;;;;;;;;;;;12.20;92.10;;;;;;4317771;33;27710;-72
2021/05/26 13:00:37;;;;;;;;;;;12.10;92.20;;;;;;4303900;33;28305;-73
2021/05/26 13:03:05;;;;;;;;;;;12.00;92.20;;;;;;4317786;33;20013;-73
2021/05/26 13:05:33;;;;;;;;;;;11.90;92.40;;;;;;4317519;33;28879;-73
2021/05/26 13:08:07;;;;;;;;;;;11.70;92.40;;;;;;4317374;33;24525;-72
2021/05/26 13:10:35;;;;;;;;;;;11.70;92.50;;;;;;4304997;33;20017;-73
2021/05/26 13:13:22;;;;;;;;;;;11.70;92.60;;;;;;4318473;33;20013;-73
2021/05/26 13:15:54;;;;;;;;;;;11.70;92.70;;;;;;4318181;33;23857;-72
2021/05/26 13:18:22;;;;;;;;;;;11.70;92.70;;;;;;4318234;33;20446;-72
2021/05/26 13:20:49;;;;;;;;;;;11.80;92.80;;;;;;4317479;33;25148;-72
2021/05/26 13:23:17;;;;;;;;;;;11.80;92.90;;;;;;4317681;33;24404;-72
2021/05/26 13:25:47;;;;;;;;;;;11.80;93.30;;;;;;4317957;33;20064;-72
2021/05/26 13:28:15;;;;;;;;;;;11.90;93.20;;;;;;4317318;33;21399;-72
2021/05/26 13:30:48;;;;;;;;;;;11.90;93.10;;;;;;4318016;33;20044;-72
2021/05/26 13:33:16;;;;;;;;;;;12.00;93.20;;;;;;4317378;33;21818;-72
2021/05/26 13:35:43;;;;;;;;;;;12.10;93.30;;;;;;4317241;33;26801;-72
2021/05/26 13:38:11;;;;;;;;;;;12.20;92.90;;;;;;4317290;33;28411;-72
2021/05/26 13:40:41;;;;;;;;;;;12.20;92.80;;;;;;4304887;33;20002;-72
2021/05/26 13:43:08;;;;;;;;;;;12.30;92.80;;;;;;4317623;33;24345;-72
2021/05/26 13:45:36;;;;;;;;;;;12.30;92.60;;;;;;4317307;33;23949;-72
2021/05/26 13:48:06;;;;;;;;;;;12.40;92.70;;;;;;4317459;33;20631;-72
2021/05/26 13:50:34;;;;;;;;;;;12.40;93.00;;;;;;4317386;33;20972;-72
2021/05/26 13:53:02;;;;;;;;;;;12.50;93.00;;;;;;4316746;33;26955;-72
2021/05/26 13:55:30;;;;;;;;;;;12.50;92.90;;;;;;4303992;33;20018;-72
2021/05/26 13:57:58;;;;;;;;;;;12.50;92.70;;;;;;4317708;33;20120;-72
2021/05/26 14:00:33;;;;;;;;;;;12.60;92.70;;;;;;4316975;33;24420;-72
2021/05/26 14:03:01;;;;;;;;;;;12.60;92.50;;;;;;4303309;33;26215;-72
2021/05/26 14:05:28;;;;;;;;;;;12.60;92.50;;;;;;4296924;33;20567;-72
2021/05/26 14:07:55;;;;;;;;;;;12.60;92.40;;;;;;4287884;33;20018;-73
2021/05/26 14:10:23;;;;;;;;;;;12.60;92.40;;;;;;4287143;33;42476;-72
2021/05/26 14:12:53;;;;;;;;;;;12.60;92.50;;;;;;4287142;33;44489;-72
2021/05/26 14:15:20;;;;;;;;;;;12.70;92.60;;;;;;4287239;33;43110;-73
2021/05/26 14:17:48;;;;;;;;;;;12.70;92.40;;;;;;4288331;33;20158;-73
2021/05/26 14:20:15;;;;;;;;;;;12.70;92.40;;;;;;4301969;33;44207;-73
2021/05/26 14:22:43;;;;;;;;;;;12.80;92.30;;;;;;4301451;33;43628;-73
2021/05/26 14:25:14;;;;;;;;;;;12.80;92.10;;;;;;4301362;33;38152;-73
2021/05/26 14:27:41;;;;;;;;;;;12.80;92.20;;;;;;4301902;33;44619;-75
2021/05/26 14:30:28;;;;;;;;;;;12.90;92.00;;;;;;4302532;33;20459;-73
2021/05/26 14:32:55;;;;;;;;;;;12.90;91.80;;;;;;4288759;33;20681;-73
2021/05/26 14:35:24;;;;;;;;;;;12.90;91.80;;;;;;4302411;33;23101;-73